Airport View

Enter AWOS ICAO identifier for current METAR.

ex. KFNL

KCPC 202145Z AUTO 05003KT 7SM CLR 26/22 A3018 RMK AO2 T02590215

20 Oct 2020 22:18

Frequency: 118.375

Phone: 910-642-7508

Other Area AWOS: KEYF - KLBT - KCRE - KMAO

TAF KLBT 201720Z 2018/2118 04005KT P6SM SCT080 FM210200 VRB03KT 5SM BR BKN090 FM210900 VRB04KT 1SM BR BKN003 FM211400 04005KT P6SM BKN020 AMD NOT SKED